Latest Weather Observations for Redcliffe

IDQ60901

Issued at 9:45 pm EST Friday 19 September 2014 (issued every 10 minutes, with the page automatically refreshed every 10 minutes)

About weather observations | Map of Brisbane area stations | Latest observations for Brisbane area | Other Formats
Station Details ID: 040958 Name: REDCLIFFE Lat: -27.22 Lon: 153.09 Height: 12.6 m
Data from the previous 72 hours. | See also: Recent months at Redcliffe
Date/Time
EST
Tmp

°C
App
Tmp
°C
Dew
Point
°C
Rel
Hum
%
Delta-T

°C
Wind Press
QNH
hPa
Press
MSL
hPa
Rain
since
9 am
mm
Dir
 
Spd
km/h
Gust
km/h
Spd
kts
Gust
kts
19/09:30pm 19.6 17.1 13.5 68 3.5 N 19 22 10 12 1019.5 1019.4 0.0
19/09:00pm 20.0 17.4 13.2 65 3.9 NNE 19 22 10 12 1019.5 1019.4 0.0
19/08:30pm 20.1 16.5 13.1 64 4.0 NNE 24 28 13 15 1019.3 1019.2 0.0
19/08:00pm 20.0 16.4 13.2 65 3.9 NNE 24 28 13 15 1019.2 1019.1 0.0
19/07:30pm 20.1 17.0 13.3 65 3.9 NNE 22 26 12 14 1018.9 1018.8 0.0
19/07:00pm 20.1 16.4 12.8 63 4.1 NNE 24 28 13 15 1018.7 1018.6 0.0
19/06:30pm 20.1 15.7 12.8 63 4.1 NNE 28 32 15 17 1018.2 1018.1 0.0
19/06:00pm 20.3 15.4 12.5 61 4.4 NNE 30 33 16 18 1017.8 1017.7 0.0
19/05:30pm 20.5 15.4 12.0 58 4.7 NNE 30 33 16 18 1017.3 1017.2 0.0
19/05:00pm 20.7 15.5 11.6 56 5.0 NE 30 33 16 18 1017.0 1016.9 0.0
19/04:30pm 21.1 15.9 11.7 55 5.2 NE 30 35 16 19 1016.8 1016.7 0.0
19/04:00pm 21.2 16.4 11.8 55 5.2 NE 28 33 15 18 1016.7 1016.6 0.0
19/03:30pm 21.3 16.1 11.6 54 5.4 NE 30 33 16 18 1016.6 1016.5 0.0
19/03:00pm 21.4 16.8 12.3 56 5.1 NE 28 32 15 17 1016.7 1016.6 0.0
19/02:30pm 21.5 16.7 11.8 54 5.4 NE 28 30 15 16 1016.7 1016.6 0.0
19/02:00pm 21.3 16.5 11.6 54 5.4 NE 28 32 15 17 1017.0 1016.9 0.0
19/01:30pm 21.4 17.0 11.7 54 5.4 ENE 26 30 14 16 1017.5 1017.4 0.0
19/01:00pm 21.9 18.7 11.9 53 5.6 ENE 20 24 11 13 1018.1 1018.0 0.0
19/12:30pm 21.7 18.7 10.5 49 6.1 E 17 19 9 10 1018.6 1018.5 0.0
19/12:00pm 22.0 19.6 9.9 46 6.5 E 13 15 7 8 1019.1 1019.0 0.0
19/11:30am 22.2 19.7 8.0 40 7.4 E 11 13 6 7 1019.8 1019.7 0.0
19/11:00am 22.2 19.8 8.7 42 7.1 ENE 11 13 6 7 1020.4 1020.4 0.0
19/10:30am 21.8 18.5 4.4 32 8.5 ENE 11 15 6 8 1020.8 1020.8 0.0
19/10:00am 21.0 19.8 11.6 55 5.2 E 9 11 5 6 1021.1 1021.1 0.0
19/09:30am 21.0 19.5 10.5 51 5.7 SSE 9 11 5 6 1021.4 1021.4 0.0
19/09:00am 20.0 17.6 10.1 53 5.3 S 13 15 7 8 1021.6 1021.6 0.0
19/08:30am 18.8 16.4 8.7 52 5.3 S 11 13 6 7 1021.5 1021.5 0.0
19/08:00am 17.4 15.4 8.8 57 4.4 SSW 9 13 5 7 1021.5 1021.5 0.0
19/07:30am 15.5 13.1 8.5 63 3.5 SW 11 15 6 8 1021.3 1021.3 0.0
19/07:00am 13.7 11.6 8.1 69 2.8 WSW 9 11 5 6 1020.8 1020.8 0.0
19/06:30am 12.0 9.7 7.5 74 2.2 WSW 9 11 5 6 1020.5 1020.5 0.0
19/06:00am 10.7 7.8 8.3 85 1.2 WSW 13 17 7 9 1020.4 1020.4 0.0
19/05:30am 11.0 8.2 8.6 85 1.2 WSW 13 15 7 8 1020.2 1020.2 0.0
19/05:00am 11.2 9.2 8.6 84 1.3 WSW 9 13 5 7 1019.9 1019.8 0.0
19/04:30am 11.3 8.9 8.5 83 1.4 WSW 11 13 6 7 1019.5 1019.4 0.0
19/04:00am 11.8 10.2 8.8 82 1.5 WSW 7 11 4 6 1019.1 1019.0 0.0
19/03:30am 11.9 9.8 8.2 78 1.8 WSW 9 11 5 6 1019.2 1019.1 0.0
19/03:00am 12.1 9.6 8.4 78 1.8 WSW 11 15 6 8 1019.1 1019.0 0.0
19/02:30am 12.4 9.9 8.3 76 2.0 WSW 11 13 6 7 1019.0 1018.9 0.0
19/02:00am 13.0 10.6 8.7 75 2.1 WSW 11 15 6 8 1019.1 1019.0 0.0
19/01:30am 13.5 12.1 8.8 73 2.4 WSW 6 9 3 5 1019.3 1019.2 0.0
19/01:00am 13.6 11.7 9.1 74 2.3 W 9 13 5 7 1019.5 1019.4 0.0
19/12:30am 14.0 12.0 8.8 71 2.6 W 9 11 5 6 1019.5 1019.4 0.0
19/12:00am 14.5 12.4 8.2 66 3.1 W 9 11 5 6 1019.8 1019.7 0.0
 
Date/Time
EST
Tmp

°C
App
Tmp
°C
Dew
Point
°C
Rel
Hum
%
Delta-T

°C
Wind Press
QNH
hPa
Press
MSL
hPa
Rain
since
9 am
mm
Dir
 
Spd
km/h
Gust
km/h
Spd
kts
Gust
kts
18/11:30pm 15.5 13.3 7.8 60 3.8 WNW 9 11 5 6 1020.0 1019.9 0.0
18/11:00pm 15.2 13.0 7.7 61 3.7 W 9 11 5 6 1019.9 1019.8 0.0
18/10:30pm 16.1 13.6 8.1 59 4.0 WNW 11 11 6 6 1020.0 1019.9 0.0
18/10:00pm 17.7 14.3 9.3 58 4.4 NNE 17 19 9 10 1020.1 1020.1 0.0
18/09:30pm 19.1 15.8 9.6 54 5.0 NNE 17 19 9 10 1020.0 1019.9 0.0
18/09:00pm 19.4 16.1 9.6 53 5.2 N 17 22 9 12 1019.7 1019.6 0.0
18/08:30pm 19.3 15.6 9.5 53 5.2 NE 19 22 10 12 1019.5 1019.4 0.0
18/08:00pm 19.4 15.6 9.0 51 5.4 NE 19 20 10 11 1019.3 1019.2 0.0
18/07:30pm 19.7 16.0 8.1 47 6.0 NE 17 20 9 11 1019.0 1018.9 0.0
18/07:00pm 19.8 16.1 7.9 46 6.1 NE 17 22 9 12 1018.6 1018.5 0.0
18/06:30pm 19.9 15.5 7.3 44 6.4 NE 20 24 11 13 1018.0 1017.9 0.0
18/06:00pm 19.9 15.7 7.6 45 6.3 ENE 19 22 10 12 1017.6 1017.5 0.0
18/05:30pm 20.4 16.1 7.7 44 6.5 ENE 20 24 11 13 1017.1 1017.0 0.0
18/05:00pm 20.8 16.0 7.4 42 6.9 E 22 26 12 14 1016.7 1016.6 0.0
18/04:30pm 21.1 15.2 7.3 41 7.1 E 28 30 15 16 1015.9 1015.8 0.0
18/04:00pm 21.6 16.4 7.4 40 7.3 E 24 30 13 16 1015.5 1015.4 0.0
18/03:30pm 22.1 17.8 7.9 40 7.4 E 20 26 11 14 1015.3 1015.2 0.0
18/03:00pm 22.2 17.0 3.3 29 9.1 E 20 22 11 12 1015.4 1015.3 0.0
18/02:30pm 23.0 17.6 2.5 26 9.7 E 20 24 11 13 1015.5 1015.4 0.0
18/02:00pm 22.6 18.0 6.4 35 8.2 ENE 20 24 11 13 1015.7 1015.6 0.0
18/01:30pm 23.9 17.9 3.2 26 10.0 ENE 24 32 13 17 1016.0 1015.9 0.0
18/01:00pm 25.3 20.7 -0.7 18 11.8 ESE 13 17 7 9 1016.3 1016.2 0.0
18/12:30pm 24.8 20.3 -0.4 19 11.5 SSW 13 26 7 14 1016.9 1016.8 0.0
18/12:00pm 24.1 19.6 -0.2 20 11.0 SSW 13 22 7 12 1017.4 1017.3 0.0
18/11:30am 23.9 18.2 -1.1 19 11.2 SSW 19 26 10 14 1017.8 1017.7 0.0
18/11:00am 23.3 17.2 -2.3 18 11.1 SSW 20 30 11 16 1018.4 1018.3 0.0
18/10:30am 23.6 18.2 -1.3 19 11.1 S 17 26 9 14 1018.8 1018.7 0.0
18/10:00am 23.2 17.4 -1.7 19 10.9 SSW 19 28 10 15 1019.1 1019.0 0.0
18/09:30am 22.6 16.4 -0.2 22 10.3 S 22 35 12 19 1019.4 1019.3 0.0
18/09:00am 21.7 16.2 -2.2 20 10.2 SSW 17 24 9 13 1019.6 1019.5 0.0
18/08:30am 21.3 16.3 1.6 27 9.1 SSW 17 26 9 14 1019.6 1019.5 0.0
18/08:00am 19.3 15.2 4.3 37 7.2 SW 15 20 8 11 1019.5 1019.4 0.0
18/07:30am 17.6 13.0 3.9 40 6.4 WSW 17 19 9 10 1019.2 1019.1 0.0
18/07:00am 16.6 12.4 3.6 42 6.0 WSW 15 19 8 10 1019.1 1019.0 0.0
18/06:30am 15.6 11.8 3.7 45 5.5 W 13 15 7 8 1018.6 1018.5 0.0
18/06:00am 15.2 11.2 2.7 43 5.6 W 13 15 7 8 1018.2 1018.1 0.0
18/05:30am 15.6 11.6 2.7 42 5.8 W 13 15 7 8 1017.8 1017.7 0.0
18/05:00am 16.0 12.4 2.8 41 6.0 W 11 15 6 8 1017.3 1017.2 0.0
18/04:30am 16.3 12.3 2.7 40 6.2 W 13 17 7 9 1016.9 1016.8 0.0
18/04:00am 15.8 12.3 3.3 43 5.7 W 11 13 6 7 1016.5 1016.4 0.0
18/03:30am 16.0 13.4 3.1 42 5.9 W 6 11 3 6 1016.3 1016.2 0.0
18/03:00am 15.9 13.8 4.0 45 5.5 W 4 7 2 4 1016.2 1016.1 0.0
18/02:30am 16.0 13.4 4.1 45 5.5 WNW 7 9 4 5 1015.9 1015.8 0.0
18/02:00am 16.8 13.6 3.1 40 6.3 WNW 9 11 5 6 1015.8 1015.7 0.0
18/01:30am 17.0 13.6 4.0 42 6.1 WSW 11 15 6 8 1015.4 1015.3 0.0
18/01:00am 17.2 13.1 4.2 42 6.1 WSW 15 20 8 11 1015.2 1015.1 0.0
18/12:30am 17.7 14.0 4.6 42 6.2 SW 13 17 7 9 1014.8 1014.7 0.0
18/12:00am 17.4 13.0 4.7 43 6.0 SW 17 22 9 12 1014.8 1014.7 0.0
 
Date/Time
EST
Tmp

°C
App
Tmp
°C
Dew
Point
°C
Rel
Hum
%
Delta-T

°C
Wind Press
QNH
hPa
Press
MSL
hPa
Rain
since
9 am
mm
Dir
 
Spd
km/h
Gust
km/h
Spd
kts
Gust
kts
17/11:30pm 17.5 13.9 6.7 49 5.4 WSW 15 19 8 10 1014.9 1014.8 0.0
17/11:00pm 17.8 14.8 7.5 51 5.2 WSW 13 17 7 9 1015.0 1014.9 0.0
17/10:30pm 17.5 15.2 10.6 64 3.7 SW 13 15 7 8 1014.7 1014.6 0.0
17/10:00pm 19.7 17.1 6.1 41 6.8 WSW 9 11 5 6 1014.7 1014.6 0.0
17/09:30pm 18.2 17.2 12.4 69 3.2 W 9 11 5 6 1014.9 1014.8 0.0
17/09:00pm 18.5 19.0 15.0 80 2.0 W 6 7 3 4 1014.5 1014.4 0.0
17/08:30pm 19.0 19.6 15.7 81 2.0 NW 7 9 4 5 1014.1 1014.0 0.0
17/08:00pm 19.6 19.9 15.9 79 2.2 NNW 9 11 5 6 1014.0 1013.9 0.0
17/07:30pm 20.5 21.0 16.5 78 2.4 NW 9 13 5 7 1013.6 1013.5 0.0
17/07:00pm 20.6 19.7 15.8 74 2.9 N 15 19 8 10 1013.2 1013.1 0.0
17/06:30pm 21.2 20.5 15.5 70 3.4 WNW 13 17 7 9 1012.8 1012.7 0.0
17/06:00pm 21.7 19.2 15.1 66 3.9 N 22 26 12 14 1012.3 1012.2 0.0
17/05:30pm 22.0 17.1 12.5 54 5.4 NNE 30 35 16 19 1011.8 1011.7 0.0
17/05:00pm 23.2 18.6 9.6 42 7.4 N 24 28 13 15 1011.4 1011.3 0.0
17/04:30pm 23.6 20.4 11.3 46 6.9 N 19 24 10 13 1011.3 1011.2 0.0
17/04:00pm 24.1 19.6 10.0 41 7.7 NNE 24 28 13 15 1011.0 1010.9 0.0
17/03:30pm 23.9 18.7 10.2 42 7.5 NNE 28 32 15 17 1010.8 1010.7 0.0
17/03:00pm 24.5 19.1 10.8 42 7.6 NNE 30 33 16 18 1010.9 1010.8 0.0
17/02:30pm 24.1 18.8 9.7 40 7.9 NNE 28 32 15 17 1011.1 1011.0 0.0
17/02:00pm 24.2 18.9 9.8 40 7.9 NE 28 32 15 17 1011.5 1011.4 0.0
17/01:30pm 27.4 22.5 6.8 27 10.9 NE 22 26 12 14 1012.0 1011.9 0.0
17/01:00pm 26.5 23.3 9.8 35 9.3 NE 17 20 9 11 1012.5 1012.4 0.0
17/12:30pm 27.0 22.2 2.8 21 11.9 ENE 17 20 9 11 1012.9 1012.8 0.0
17/12:00pm 27.1 23.0 2.2 20 12.1 ENE 13 17 7 9 1013.3 1013.2 0.0
17/11:30am 26.8 23.3 3.3 22 11.6 ENE 11 15 6 8 1013.7 1013.6 0.0
17/11:00am 26.7 22.0 3.2 22 11.6 N 17 19 9 10 1014.1 1014.0 0.0
17/10:30am 25.4 20.4 1.5 21 11.3 SW 17 24 9 13 1014.7 1014.6 0.0
17/10:00am 25.9 21.3 3.8 24 11.0 SSW 17 24 9 13 1014.9 1014.8 0.0
17/09:30am 24.6 20.2 4.9 28 9.9 SW 17 24 9 13 1015.1 1015.0 0.0
17/09:00am 23.7 19.5 5.6 31 9.1 SW 17 24 9 13 1015.3 1015.2 2.6
17/08:30am 22.3 18.4 7.3 38 7.8 WNW 17 22 9 12 1015.4 1015.3 2.6
17/08:00am 20.8 17.5 9.7 49 5.9 WNW 17 22 9 12 1015.3 1015.2 2.6
17/07:30am 18.9 16.2 10.5 58 4.5 WNW 15 17 8 9 1015.1 1015.0 2.6
17/07:00am 17.6 15.4 10.7 64 3.7 WNW 13 19 7 10 1014.9 1014.8 2.6
17/06:30am 16.0 13.3 10.5 70 2.9 NW 15 17 8 9 1014.5 1014.4 2.6
17/06:00am 15.5 13.2 10.5 72 2.6 NW 13 19 7 10 1014.1 1014.0 2.6
17/05:30am 15.9 13.4 10.9 72 2.7 NNW 15 19 8 10 1013.9 1013.8 2.6
17/05:00am 15.7 13.1 10.7 72 2.7 NNW 15 20 8 11 1013.7 1013.6 2.6
17/04:30am 17.9 15.5 11.5 66 3.5 NNW 15 20 8 11 1013.4 1013.3 2.6
17/04:00am 17.9 14.9 11.9 68 3.3 NNW 19 26 10 14 1013.1 1013.0 2.6
17/03:30am 18.5 15.2 11.6 64 3.8 N 20 26 11 14 1012.9 1012.8 2.6
17/03:00am 18.6 15.2 11.2 62 4.0 N 20 28 11 15 1012.8 1012.7 2.6
17/02:30am 18.9 15.5 10.7 59 4.4 N 19 24 10 13 1012.7 1012.6 2.6
17/02:00am 19.0 15.6 11.1 60 4.3 N 20 28 11 15 1013.0 1012.9 2.6
17/01:30am 19.1 15.7 11.4 61 4.2 N 20 26 11 14 1013.2 1013.1 2.6
17/01:00am 19.0 15.8 11.1 60 4.3 N 19 28 10 15 1013.3 1013.2 2.6
17/12:30am 19.0 16.0 10.8 59 4.4 N 17 22 9 12 1013.5 1013.4 2.6
17/12:00am 19.2 15.9 11.0 59 4.5 N 19 26 10 14 1013.6 1013.5 2.6
 
Date/Time
EST
Tmp

°C
App
Tmp
°C
Dew
Point
°C
Rel
Hum
%
Delta-T

°C
Wind Press
QNH
hPa
Press
MSL
hPa
Rain
since
9 am
mm
Dir
 
Spd
km/h
Gust
km/h
Spd
kts
Gust
kts
16/11:30pm 18.8 15.7 11.6 63 4.0 N 19 28 10 15 1013.7 1013.6 2.6
16/11:00pm 19.5 16.3 11.8 61 4.3 N 20 30 11 16 1013.6 1013.5 2.6
16/10:30pm 19.8 16.4 12.6 63 4.0 N 22 33 12 18 1013.4 1013.3 2.6
16/10:00pm 19.9 17.8 13.6 67 3.6 N 17 24 9 13 1013.1 1013.0 2.6

Latest Capital City Observations: Canberra | Sydney | Melbourne | Brisbane | Adelaide | Perth | Hobart | Darwin

Other Formats:

Comma delimited format used in spreadsheet applications
http://www.bom.gov.au/fwo/IDQ60901/IDQ60901.95591.axf

JavaScript Object Notation format (JSON) in row-major order
http://www.bom.gov.au/fwo/IDQ60901/IDQ60901.95591.json